Time;durP1;ratioP1;P1;durP2;ratioP2;P2;SDS_P1;SDS_P2;PMS_P1;PMS_P2;Temp;Humidity;BMP_temperature;BMP_pressure;BME280_temperature;BME280_humidity;BME280_pressure;Samples;Min_cycle;Max_cycle;Signal;HPM_P1;HPM_P2
2021/12/14 00:02:37;;;;;;;136.57;61.73;;;;;;;-0.68;100.00;100182.59;3993056;87;28583;-74
2021/12/14 00:08:50;;;;;;;147.55;64.00;;;;;;;-0.64;100.00;100185.34;3998695;87;44220;-74
2021/12/14 00:15:03;;;;;;;143.53;62.77;;;;;;;-0.56;100.00;100188.65;3988233;88;28593;-73
2021/12/14 00:20:59;;;;;;;145.25;65.87;;;;;;;-0.60;100.00;100192.03;3989476;87;28562;-74
2021/12/14 00:27:06;;;;;;;162.27;68.67;;;;;;;-0.58;100.00;100182.16;3910590;89;28509;-74
2021/12/14 00:33:13;;;;;;;150.07;68.02;;;;;;;-0.61;100.00;100178.47;3952364;89;43960;-75
2021/12/14 00:39:15;;;;;;;147.20;64.40;;;;;;;-0.52;100.00;100183.95;3954397;88;28505;-74
2021/12/14 00:45:19;;;;;;;146.93;64.70;;;;;;;-0.49;100.00;100182.36;3962719;88;28471;-77
2021/12/14 00:51:26;;;;;;;175.03;76.90;;;;;;;-0.48;100.00;100190.63;3967916;87;28508;-76
2021/12/14 00:57:24;;;;;;;189.55;79.87;;;;;;;-0.69;100.00;100189.34;3971276;88;28581;-77
2021/12/14 01:03:30;;;;;;;197.70;85.57;;;;;;;-0.87;100.00;100192.55;3979084;88;28582;-77
2021/12/14 01:09:38;;;;;;;203.73;85.38;;;;;;;-1.09;100.00;100197.45;3984495;88;43544;-78
2021/12/14 01:28:15;;;;;;;185.50;79.50;;;;;;;-1.57;100.00;100195.58;3978950;88;43372;-76
2021/12/14 01:34:22;;;;;;;178.62;77.03;;;;;;;-1.47;100.00;100182.01;3987491;88;43273;-76
2021/12/14 01:40:46;;;;;;;188.32;79.00;;;;;;;-1.44;100.00;100183.56;3989044;88;43541;-76
2021/12/14 01:46:35;;;;;;;179.72;75.05;;;;;;;-1.43;100.00;100183.42;3989092;88;43865;-75
2021/12/14 01:52:39;;;;;;;169.55;71.82;;;;;;;-1.39;100.00;100180.05;3990786;87;28490;-75
2021/12/14 01:58:46;;;;;;;178.82;71.17;;;;;;;-1.33;100.00;100170.80;4008764;87;28505;-75
2021/12/14 02:04:52;;;;;;;169.37;71.92;;;;;;;-1.33;100.00;100182.20;4019844;87;43939;-74
2021/12/14 02:10:55;;;;;;;;;;;;;;;-1.56;100.00;100190.20;3980896;87;28540;-73
2021/12/14 02:17:02;;;;;;;164.07;67.55;;;;;;;-1.71;100.00;100185.67;3985392;87;44626;-73
2021/12/14 02:23:06;;;;;;;161.68;65.42;;;;;;;-1.49;100.00;100191.85;3981310;87;44528;-76
2021/12/14 02:29:11;;;;;;;163.30;67.12;;;;;;;-1.44;100.00;100188.84;3981990;87;44630;-77
2021/12/14 02:35:17;;;;;;;176.60;68.67;;;;;;;-1.39;100.00;100184.52;3989781;88;28499;-78
2021/12/14 02:41:19;;;;;;;172.40;66.37;;;;;;;-1.58;100.00;100192.59;3917633;90;43845;-79
2021/12/14 02:47:24;;;;;;;182.05;66.80;;;;;;;-1.86;100.00;100200.06;3940549;89;44266;-78
2021/12/14 02:53:25;;;;;;;186.73;70.20;;;;;;;-1.63;100.00;100196.92;4004521;87;44816;-76
2021/12/14 02:59:31;;;;;;;195.00;69.22;;;;;;;-1.46;100.00;100196.02;3955647;89;43893;-76
2021/12/14 03:05:38;;;;;;;178.82;69.72;;;;;;;-1.43;100.00;100188.70;3969387;89;43980;-76
2021/12/14 03:11:40;;;;;;;193.10;69.95;;;;;;;-1.45;100.00;100197.72;3963211;89;44646;-76
2021/12/14 03:17:44;;;;;;;197.70;68.45;;;;;;;-1.45;100.00;100202.50;3958904;89;43554;-76
2021/12/14 03:23:53;;;;;;;199.53;66.70;;;;;;;-1.57;100.00;100192.45;3959475;89;28512;-77
2021/12/14 03:29:54;;;;;;;189.43;64.72;;;;;;;-1.59;100.00;100190.92;3956969;89;44623;-75
2021/12/14 03:36:02;;;;;;;188.75;66.62;;;;;;;-1.63;100.00;100189.00;3948462;89;44624;-76
2021/12/14 03:42:12;;;;;;;214.85;70.40;;;;;;;-1.62;100.00;100190.67;4023802;87;44714;-76
2021/12/14 03:48:14;;;;;;;194.62;69.85;;;;;;;-1.64;100.00;100187.33;3957326;88;43952;-75
2021/12/14 03:54:18;;;;;;;211.65;71.70;;;;;;;-1.59;100.00;100183.83;3924657;89;44331;-76
2021/12/14 04:00:28;;;;;;;201.88;71.17;;;;;;;-1.46;100.00;100180.19;3895320;90;44152;-79
2021/12/14 04:06:29;;;;;;;211.82;73.33;;;;;;;-1.50;100.00;100178.77;3889961;90;44130;-78
2021/12/14 04:12:31;;;;;;;216.85;75.22;;;;;;;-1.60;100.00;100175.56;3884642;90;43482;-76
2021/12/14 04:18:33;;;;;;;225.32;74.22;;;;;;;-1.73;100.00;100165.16;3900222;90;28569;-78
2021/12/14 04:24:38;;;;;;;205.25;67.05;;;;;;;-1.47;100.00;100156.09;3883451;90;44284;-78
2021/12/14 04:30:41;;;;;;;194.45;67.47;;;;;;;-1.61;100.00;100160.70;3940440;89;44182;-79
2021/12/14 04:36:50;;;;;;;219.40;67.60;;;;;;;-1.55;100.00;100166.81;3917611;89;44267;-78
2021/12/14 04:55:44;;;;;;;232.40;71.95;;;;;;;-1.80;100.00;100173.69;3937085;89;44268;-77
2021/12/14 05:01:48;;;;;;;228.52;71.90;;;;;;;-1.50;100.00;100183.58;4008359;87;28497;-78
2021/12/14 05:14:11;;;;;;;242.40;73.80;;;;;;;-1.42;100.00;100164.48;3884031;89;43461;-77
2021/12/14 05:20:16;;;;;;;257.77;74.82;;;;;;;-1.46;100.00;100167.85;3989412;88;44637;-78
2021/12/14 05:26:19;;;;;;;226.80;72.25;;;;;;;-1.34;100.00;100177.89;3927645;89;44213;-76
2021/12/14 05:32:21;;;;;;;244.30;75.28;;;;;;;-1.36;100.00;100176.34;3903809;90;28523;-75
2021/12/14 05:38:43;;;;;;;227.80;72.40;;;;;;;-1.42;100.00;100183.77;3932476;89;44218;-75
2021/12/14 05:44:42;;;;;;;227.00;71.28;;;;;;;-1.24;100.00;100182.42;3979058;88;44423;-77
2021/12/14 05:50:49;;;;;;;243.22;72.80;;;;;;;-1.26;100.00;100183.36;4000700;87;28509;-78
2021/12/14 05:56:52;;;;;;;260.50;76.90;;;;;;;-1.32;100.00;100179.07;3994048;88;28499;-75
2021/12/14 06:02:55;;;;;;;248.78;74.97;;;;;;;-1.21;100.00;100161.05;4013865;87;44685;-77
2021/12/14 06:09:18;;;;;;;237.02;72.03;;;;;;;-1.21;100.00;100160.55;4003489;87;44411;-76
2021/12/14 06:15:27;;;;;;;269.80;77.80;;;;;;;-1.18;100.00;100167.38;4000805;87;28565;-75
2021/12/14 06:21:31;;;;;;;269.40;76.70;;;;;;;-1.21;100.00;100168.47;3990449;87;28486;-73
2021/12/14 06:27:34;;;;;;;277.60;76.05;;;;;;;-1.23;100.00;100167.77;3942874;89;44620;-73
2021/12/14 06:33:35;;;;;;;257.32;74.25;;;;;;;-1.21;100.00;100160.55;3994884;88;44649;-73
2021/12/14 06:40:11;;;;;;;244.87;71.95;;;;;;;-1.15;100.00;100161.38;4014161;87;44341;-75
2021/12/14 06:46:17;;;;;;;242.50;72.05;;;;;;;-1.07;100.00;100165.19;4016360;87;44370;-75
2021/12/14 06:52:18;;;;;;;229.87;72.90;;;;;;;-1.07;100.00;100167.83;3940740;89;44334;-75
2021/12/14 06:58:27;;;;;;;235.10;70.37;;;;;;;-1.04;100.00;100157.86;4022072;87;28544;-74
2021/12/14 07:04:32;;;;;;;236.87;72.10;;;;;;;-1.01;100.00;100168.15;4011015;87;28481;-76
2021/12/14 07:10:38;;;;;;;245.73;72.45;;;;;;;-0.98;100.00;100157.82;3944782;89;28529;-74
2021/12/14 07:16:45;;;;;;;226.85;68.37;;;;;;;-0.91;100.00;100152.36;3943006;89;28547;-73
2021/12/14 07:22:47;;;;;;;232.30;69.50;;;;;;;-0.82;100.00;100162.66;4009043;87;28540;-73
2021/12/14 07:28:48;;;;;;;;;;;;;;;-0.85;100.00;100157.61;3945174;89;28561;-73
2021/12/14 07:34:49;;;;;;;220.17;63.55;;;;;;;-0.75;100.00;100160.33;3942201;89;43898;-73
2021/12/14 07:41:15;;;;;;;207.60;67.82;;;;;;;-0.65;100.00;100161.22;3934405;89;28476;-74
2021/12/14 07:47:19;;;;;;;221.35;66.17;;;;;;;-0.53;100.00;100167.74;3937148;89;28488;-74
2021/12/14 07:53:44;;;;;;;229.28;67.92;;;;;;;-0.54;100.00;100166.08;4010269;87;28603;-76
2021/12/14 08:00:11;;;;;;;221.87;68.60;;;;;;;-0.34;100.00;100169.17;3927560;89;28575;-74
2021/12/14 08:06:15;;;;;;;241.63;70.85;;;;;;;-0.34;100.00;100169.17;3925674;89;28477;-74
2021/12/14 08:12:37;;;;;;;224.12;69.37;;;;;;;-0.25;100.00;100174.63;3922803;89;28517;-76
2021/12/14 08:18:39;;;;;;;227.25;69.90;;;;;;;-0.23;100.00;100176.66;3924991;89;28550;-73
2021/12/14 08:24:48;;;;;;;234.10;71.70;;;;;;;-0.15;100.00;100175.51;3926253;89;44253;-73
2021/12/14 08:31:00;;;;;;;226.98;68.45;;;;;;;-0.05;100.00;100171.09;3925258;89;43917;-74
2021/12/14 08:37:19;;;;;;;246.35;71.15;;;;;;;0.08;100.00;100165.55;3925915;89;28578;-74
2021/12/14 08:43:30;;;;;;;233.30;67.42;;;;;;;0.06;100.00;100164.84;3934147;89;28600;-74
2021/12/14 08:49:30;;;;;;;228.60;68.40;;;;;;;0.08;100.00;100156.79;3933740;89;28529;-74
2021/12/14 08:55:36;;;;;;;216.15;63.68;;;;;;;0.06;100.00;100157.42;3932362;89;28477;-75
2021/12/14 09:01:40;;;;;;;;;;;;;;;-0.05;100.00;100161.84;3991137;87;28569;-75
2021/12/14 09:07:44;;;;;;;183.60;58.02;;;;;;;0.06;100.00;100150.81;3925513;89;28628;-74
2021/12/14 09:13:46;;;;;;;203.55;60.80;;;;;;;0.23;100.00;100158.06;3939219;89;43586;-74
2021/12/14 09:19:59;;;;;;;203.62;63.83;;;;;;;0.38;100.00;100148.44;3986836;88;43618;-73
2021/12/14 09:26:03;;;;;;;211.20;61.73;;;;;;;0.56;100.00;100159.16;3986830;87;28533;-74
2021/12/14 09:32:09;;;;;;;207.98;62.05;;;;;;;0.32;100.00;100170.98;3985246;88;28483;-74
2021/12/14 09:38:12;;;;;;;;;;;;;;;0.44;100.00;100150.51;3986221;88;28878;-75
2021/12/14 09:44:16;;;;;;;185.55;58.20;;;;;;;0.59;100.00;100138.21;3983988;88;20210;-74
2021/12/14 09:50:23;;;;;;;191.92;60.78;;;;;;;0.70;100.00;100130.12;3980330;88;28513;-75
2021/12/14 09:56:29;;;;;;;200.22;65.20;;;;;;;0.78;100.00;100128.09;3957403;88;28568;-74
2021/12/14 10:02:38;;;;;;;173.97;56.20;;;;;;;0.82;100.00;100126.83;3923787;89;28571;-75
2021/12/14 10:08:45;;;;;;;172.07;56.60;;;;;;;0.74;100.00;100122.24;3935025;89;28457;-75
2021/12/14 10:14:50;;;;;;;173.57;57.45;;;;;;;0.83;100.00;100112.61;3966281;89;28580;-76
2021/12/14 10:21:06;;;;;;;169.13;56.53;;;;;;;1.01;100.00;100103.48;3966181;89;28526;-73
2021/12/14 10:27:12;;;;;;;162.68;55.05;;;;;;;1.20;100.00;100106.56;3960519;89;28497;-75
2021/12/14 10:33:14;;;;;;;167.82;56.18;;;;;;;1.24;100.00;100110.58;3952993;89;28504;-74
2021/12/14 10:39:35;;;;;;;168.55;56.40;;;;;;;1.21;100.00;100114.85;3971711;89;28496;-74
2021/12/14 10:45:27;;;;;;;153.70;54.20;;;;;;;1.25;100.00;100107.45;3937612;89;28525;-74
2021/12/14 10:51:34;;;;;;;167.82;58.10;;;;;;;1.60;100.00;100108.58;3974615;89;28507;-74
2021/12/14 10:57:36;;;;;;;160.35;53.58;;;;;;;1.58;100.00;100103.92;4027248;88;28568;-74
2021/12/14 11:03:45;;;;;;;162.80;55.63;;;;;;;1.57;100.00;100097.45;4060851;87;28508;-74
2021/12/14 11:09:52;;;;;;;166.32;57.45;;;;;;;1.72;100.00;100093.32;4026271;87;28499;-74
2021/12/14 11:15:54;;;;;;;143.65;52.88;;;;;;;1.80;100.00;100093.42;4053398;88;28541;-73
2021/12/14 11:22:16;;;;;;;160.27;52.80;;;;;;;1.90;100.00;100091.22;4060149;88;28523;-73
2021/12/14 11:28:35;;;;;;;146.32;51.02;;;;;;;2.13;100.00;100082.83;4039957;88;28582;-73
2021/12/14 11:34:37;;;;;;;146.80;52.85;;;;;;;2.22;100.00;100076.11;4027281;88;28487;-73
2021/12/14 11:40:40;;;;;;;138.05;49.05;;;;;;;2.33;100.00;100068.44;4037758;87;28836;-73
2021/12/14 11:47:08;;;;;;;137.90;48.00;;;;;;;2.41;100.00;100060.22;4065490;87;28499;-74
2021/12/14 11:53:18;;;;;;;46.88;19.87;;;;;;;2.29;100.00;100051.16;4065682;88;28547;-73
2021/12/14 11:59:20;;;;;;;36.68;14.95;;;;;;;2.27;100.00;100067.70;4055610;88;28531;-73
2021/12/14 12:05:30;;;;;;;36.50;15.43;;;;;;;2.33;100.00;100055.16;4053811;88;28537;-75
2021/12/14 12:11:42;;;;;;;32.75;14.15;;;;;;;2.37;100.00;100061.01;4055605;88;28529;-73
2021/12/14 12:17:48;;;;;;;38.38;15.78;;;;;;;2.39;100.00;100053.72;4020405;88;28545;-73
2021/12/14 12:23:49;;;;;;;40.70;16.45;;;;;;;2.34;100.00;100055.98;4051400;88;28545;-73
2021/12/14 12:30:21;;;;;;;35.68;16.50;;;;;;;2.25;100.00;100051.10;4027130;87;28565;-74
2021/12/14 12:36:35;;;;;;;44.85;17.17;;;;;;;2.33;100.00;100040.57;3999491;88;28555;-74
2021/12/14 12:42:36;;;;;;;43.92;19.15;;;;;;;2.50;100.00;100044.70;3955936;89;28489;-73
2021/12/14 12:48:45;;;;;;;60.52;20.55;;;;;;;2.60;100.00;100048.09;3920838;89;28502;-74
2021/12/14 12:55:02;;;;;;;56.05;23.12;;;;;;;2.67;100.00;100048.31;4046298;87;28582;-74
2021/12/14 13:01:04;;;;;;;62.55;24.75;;;;;;;2.37;100.00;100051.20;4010041;87;28557;-75
2021/12/14 13:07:07;;;;;;;63.63;25.72;;;;;;;2.33;100.00;100051.19;4034739;88;28526;-75
2021/12/14 13:13:23;;;;;;;62.83;25.92;;;;;;;2.34;100.00;100044.03;3992231;88;28471;-73
2021/12/14 13:19:29;;;;;;;61.50;26.10;;;;;;;2.15;100.00;100054.32;3924109;89;28578;-75
2021/12/14 13:25:38;;;;;;;43.35;18.95;;;;;;;2.18;100.00;100056.19;3984317;88;28569;-74
2021/12/14 13:31:44;;;;;;;30.88;14.28;;;;;;;2.13;100.00;100069.05;4014485;88;28543;-73
2021/12/14 13:37:51;;;;;;;27.55;12.35;;;;;;;2.01;100.00;100072.44;3992481;88;28526;-74
2021/12/14 13:43:53;;;;;;;26.95;12.40;;;;;;;2.09;100.00;100067.70;4004967;88;28495;-74
2021/12/14 13:49:58;;;;;;;27.60;11.65;;;;;;;2.07;100.00;100068.34;3973653;89;28525;-75
2021/12/14 13:56:06;;;;;;;25.57;12.33;;;;;;;2.08;100.00;100072.19;3984959;89;28533;-75
2021/12/14 14:02:08;;;;;;;26.82;12.13;;;;;;;1.89;100.00;100082.41;3995630;88;28527;-75
2021/12/14 14:08:17;;;;;;;31.12;12.95;;;;;;;2.05;100.00;100083.59;3965428;89;28496;-75
2021/12/14 14:14:27;;;;;;;34.08;13.98;;;;;;;2.10;100.00;100073.34;3990779;88;28533;-74
2021/12/14 14:20:34;;;;;;;30.23;12.63;;;;;;;2.12;100.00;100062.59;4023757;88;28893;-75
2021/12/14 14:26:41;;;;;;;30.50;13.38;;;;;;;2.11;100.00;100064.40;3940333;90;28510;-74
2021/12/14 14:33:10;;;;;;;24.77;13.03;;;;;;;2.05;100.00;100064.51;4011828;88;28527;-74
2021/12/14 14:39:18;;;;;;;;;;;;;;;2.11;100.00;100050.31;4049820;88;28476;-74
2021/12/14 14:45:26;;;;;;;27.13;11.55;;;;;;;2.05;100.00;100059.20;4055145;87;20627;-75
2021/12/14 14:51:59;;;;;;;25.30;11.90;;;;;;;2.08;100.00;100060.73;4011207;88;28558;-76
2021/12/14 14:58:11;;;;;;;27.52;12.40;;;;;;;2.06;100.00;100058.22;3983492;88;28570;-75
2021/12/14 15:04:12;;;;;;;26.50;12.90;;;;;;;2.04;100.00;100052.73;4064288;87;28496;-75
2021/12/14 15:10:17;;;;;;;26.97;12.23;;;;;;;1.94;100.00;100054.96;4038003;87;28478;-75
2021/12/14 15:16:33;;;;;;;27.15;12.80;;;;;;;1.94;100.00;100062.08;3947397;89;28522;-75
2021/12/14 15:22:36;;;;;;;25.50;12.85;;;;;;;1.97;100.00;100059.62;3949652;90;28549;-75
2021/12/14 15:28:37;;;;;;;30.40;14.53;;;;;;;1.96;100.00;100053.47;3916389;89;28564;-76
2021/12/14 15:35:10;;;;;;;36.68;16.02;;;;;;;2.06;100.00;100058.72;3916878;90;28526;-77
2021/12/14 15:41:25;;;;;;;36.25;17.25;;;;;;;2.07;100.00;100058.55;3945536;89;28490;-76
2021/12/14 15:47:27;;;;;;;48.38;20.60;;;;;;;2.07;100.00;100041.82;3935278;89;28525;-76
2021/12/14 15:53:42;;;;;;;50.08;22.05;;;;;;;1.93;100.00;100042.69;3945711;90;28909;-76
2021/12/14 15:59:49;;;;;;;53.67;22.63;;;;;;;1.91;100.00;100032.70;3962562;87;28543;-80
2021/12/14 16:05:54;;;;;;;53.33;23.07;;;;;;;1.97;100.00;100031.77;3918626;89;28539;-78
2021/12/14 16:18:23;;;;;;;52.17;23.32;;;;;;;1.97;100.00;100029.12;3920555;89;28489;-78
2021/12/14 16:24:25;;;;;;;56.95;24.45;;;;;;;2.07;100.00;100039.98;3937671;89;28528;-77
2021/12/14 16:30:34;;;;;;;65.10;26.97;;;;;;;2.12;100.00;100043.52;3929752;89;28499;-80
2021/12/14 16:36:40;;;;;;;62.43;27.37;;;;;;;2.09;100.00;100044.67;3926828;89;28505;-76
2021/12/14 16:42:46;;;;;;;57.58;26.42;;;;;;;2.08;100.00;100062.05;3934241;89;28584;-76
2021/12/14 16:48:47;;;;;;;50.85;23.85;;;;;;;2.05;100.00;100077.77;3937669;89;28472;-82
2021/12/14 16:54:53;;;;;;;60.28;24.52;;;;;;;2.05;100.00;100092.88;3915604;90;28576;-77
2021/12/14 17:01:04;;;;;;;51.33;22.07;;;;;;;2.00;100.00;100088.02;3979286;87;28499;-78
2021/12/14 17:07:11;;;;;;;55.90;25.23;;;;;;;2.06;100.00;100075.45;3981038;88;28459;-76
2021/12/14 17:13:22;;;;;;;63.50;26.60;;;;;;;2.05;100.00;100084.91;3980905;88;28509;-76
2021/12/14 17:19:23;;;;;;;56.00;26.05;;;;;;;2.09;100.00;100088.45;4002207;87;28514;-78
2021/12/14 17:25:25;;;;;;;56.60;26.73;;;;;;;2.04;100.00;100089.38;3945957;89;28460;-76
2021/12/14 17:31:32;;;;;;;62.03;25.52;;;;;;;2.08;100.00;100092.56;3946917;89;28469;-76
2021/12/14 17:37:38;;;;;;;59.75;26.77;;;;;;;1.87;100.00;100090.16;3952902;88;28594;-76
2021/12/14 17:43:39;;;;;;;59.47;27.13;;;;;;;1.90;100.00;100091.22;3945493;89;28503;-76
2021/12/14 17:49:46;;;;;;;54.20;24.80;;;;;;;2.02;100.00;100072.78;3946121;88;28479;-80
2021/12/14 17:55:56;;;;;;;61.13;26.68;;;;;;;2.02;100.00;100053.36;3945853;89;28557;-75
2021/12/14 18:01:57;;;;;;;68.00;29.12;;;;;;;1.98;100.00;100056.83;3955900;88;28555;-77
2021/12/14 18:08:04;;;;;;;66.55;29.63;;;;;;;1.95;100.00;100057.95;3986473;87;28470;-77
2021/12/14 18:14:16;;;;;;;68.60;29.02;;;;;;;1.98;100.00;100062.13;3989578;87;28497;-78
2021/12/14 18:20:23;;;;;;;64.22;29.85;;;;;;;1.95;100.00;100068.56;3962741;87;28517;-79
2021/12/14 18:26:30;;;;;;;78.80;31.82;;;;;;;1.99;100.00;100080.19;3998041;87;28531;-78
2021/12/14 18:32:32;;;;;;;74.95;34.53;;;;;;;1.93;100.00;100090.91;3977074;88;28578;-77
2021/12/14 18:38:36;;;;;;;74.82;32.90;;;;;;;1.95;100.00;100100.39;3989700;87;28533;-76
2021/12/14 18:44:42;;;;;;;70.60;32.05;;;;;;;2.02;100.00;100103.76;3931838;89;28495;-76
2021/12/14 18:50:48;;;;;;;70.83;31.97;;;;;;;2.11;100.00;100096.23;3927521;90;28459;-76
2021/12/14 18:56:57;;;;;;;72.25;33.45;;;;;;;2.15;100.00;100096.77;3935475;89;28517;-80
2021/12/14 19:02:59;;;;;;;81.82;34.92;;;;;;;2.30;100.00;100092.63;3932277;89;28538;-78
2021/12/14 19:09:13;;;;;;;74.30;34.27;;;;;;;2.25;100.00;100092.75;3926233;89;28517;-76
2021/12/14 19:15:18;;;;;;;70.25;31.87;;;;;;;2.30;100.00;100086.00;3922019;90;28477;-74
2021/12/14 19:21:28;;;;;;;75.42;31.95;;;;;;;2.31;100.00;100097.43;3923165;90;28526;-74
2021/12/14 19:27:34;;;;;;;61.30;29.15;;;;;;;2.30;100.00;100099.27;3969044;88;28512;-77
2021/12/14 19:33:39;;;;;;;;;;;;;;;2.40;100.00;100103.67;3983351;89;28500;-72
2021/12/14 19:39:43;;;;;;;67.58;31.23;;;;;;;2.33;100.00;100112.23;3984360;88;20241;-76
2021/12/14 19:45:49;;;;;;;70.97;32.05;;;;;;;2.35;100.00;100103.61;4000101;88;28485;-73
2021/12/14 19:51:55;;;;;;;71.40;31.87;;;;;;;2.29;100.00;100110.02;3963813;88;28527;-73
2021/12/14 19:58:03;;;;;;;68.47;31.60;;;;;;;2.32;100.00;100101.27;3989328;88;28582;-72
2021/12/14 20:04:07;;;;;;;63.28;29.15;;;;;;;2.22;100.00;100091.22;4032802;88;28497;-75
2021/12/14 20:10:14;;;;;;;66.37;30.05;;;;;;;2.23;100.00;100096.36;4026723;88;28533;-78
2021/12/14 20:16:17;;;;;;;64.97;30.05;;;;;;;2.29;100.00;100099.41;4027206;88;28520;-77
2021/12/14 20:22:20;;;;;;;65.15;29.20;;;;;;;2.27;100.00;100108.02;4024909;87;28580;-72
2021/12/14 20:28:32;;;;;;;65.45;29.27;;;;;;;2.30;100.00;100109.03;4014526;88;28525;-74
2021/12/14 20:34:39;;;;;;;69.05;30.48;;;;;;;2.31;100.00;100116.86;3981563;88;28606;-75
2021/12/14 20:40:41;;;;;;;64.65;30.10;;;;;;;2.33;100.00;100132.61;4017231;88;28472;-73
2021/12/14 20:46:47;;;;;;;63.00;29.12;;;;;;;2.31;100.00;100127.95;3976046;89;28547;-73
2021/12/14 20:52:54;;;;;;;63.48;30.20;;;;;;;2.24;100.00;100133.03;4041984;87;28518;-73
2021/12/14 20:59:08;;;;;;;66.40;29.60;;;;;;;2.30;100.00;100132.92;4027212;87;28505;-72
2021/12/14 21:05:07;;;;;;;59.73;28.83;;;;;;;2.36;100.00;100136.31;3963103;89;28540;-73
2021/12/14 21:11:08;;;;;;;68.33;30.52;;;;;;;2.41;100.00;100141.17;3963462;89;28480;-73
2021/12/14 21:17:14;;;;;;;73.87;33.35;;;;;;;2.35;100.00;100133.32;3946049;89;28573;-74
2021/12/14 21:23:20;;;;;;;71.90;33.35;;;;;;;2.30;100.00;100151.50;4058046;87;28535;-74
2021/12/14 21:29:22;;;;;;;78.20;33.98;;;;;;;2.32;100.00;100157.48;4058219;87;28569;-72
2021/12/14 21:35:41;;;;;;;80.28;34.63;;;;;;;2.26;100.00;100168.20;4029791;87;28493;-76
2021/12/14 21:41:50;;;;;;;86.02;38.75;;;;;;;2.27;100.00;100173.86;4055949;88;28522;-78
2021/12/14 21:47:51;;;;;;;76.70;36.25;;;;;;;2.35;100.00;100173.95;4028030;88;28497;-77
2021/12/14 21:53:54;;;;;;;75.87;34.67;;;;;;;2.34;100.00;100164.80;4010314;88;28473;-79
2021/12/14 21:59:59;;;;;;;78.52;36.42;;;;;;;2.30;100.00;100167.42;4008870;87;28517;-72
2021/12/14 22:06:03;;;;;;;91.85;40.83;;;;;;;2.31;100.00;100165.11;4043727;87;28539;-74
2021/12/14 22:12:07;;;;;;;104.00;45.35;;;;;;;2.39;100.00;100165.20;4039447;87;28519;-73
2021/12/14 22:18:09;;;;;;;111.00;50.20;;;;;;;2.47;100.00;100171.08;4035863;87;28513;-77
2021/12/14 22:24:13;;;;;;;123.60;51.75;;;;;;;2.50;100.00;100170.30;4052791;87;28555;-75
2021/12/14 22:30:16;;;;;;;125.80;50.92;;;;;;;2.44;100.00;100158.94;4029663;87;28512;-73
2021/12/14 22:36:20;;;;;;;120.08;51.80;;;;;;;2.41;100.00;100161.90;4037255;87;28525;-78
2021/12/14 22:42:44;;;;;;;109.55;48.48;;;;;;;2.42;100.00;100160.91;4024887;88;28558;-79
2021/12/14 22:48:28;;;;;;;133.12;57.93;;;;;;;2.45;100.00;100164.61;4056486;88;28521;-77
2021/12/14 22:54:31;;;;;;;139.25;61.40;;;;;;;2.50;100.00;100161.52;4055388;88;28481;-76
2021/12/14 23:00:49;;;;;;;131.27;58.15;;;;;;;2.59;100.00;100156.59;4007916;88;28574;-76
2021/12/14 23:06:55;;;;;;;134.50;59.83;;;;;;;2.54;100.00;100156.70;4007134;89;28509;-77
2021/12/14 23:13:02;;;;;;;144.53;57.97;;;;;;;2.54;100.00;100140.78;3980464;89;28501;-76
2021/12/14 23:19:18;;;;;;;132.03;56.37;;;;;;;2.51;100.00;100148.06;3977624;89;28684;-75
2021/12/14 23:25:12;;;;;;;155.82;64.50;;;;;;;2.68;100.00;100151.36;3991197;89;28504;-77
2021/12/14 23:31:14;;;;;;;146.40;59.33;;;;;;;2.74;100.00;100142.30;4018162;88;28519;-76
2021/12/14 23:37:17;;;;;;;145.75;57.95;;;;;;;2.73;100.00;100139.30;3978100;89;28599;-74
2021/12/14 23:43:25;;;;;;;142.62;56.65;;;;;;;2.68;100.00;100153.54;3978604;89;28506;-77
2021/12/14 23:49:24;;;;;;;155.37;57.58;;;;;;;2.64;100.00;100145.52;3992897;89;28553;-77
2021/12/14 23:55:26;;;;;;;154.10;56.08;;;;;;;2.79;100.00;100149.80;4005672;89;28504;-77
